Time;durP1;ratioP1;P1;durP2;ratioP2;P2;SDS_P1;SDS_P2;PMS_P1;PMS_P2;Temp;Humidity;BMP_temperature;BMP_pressure;BME280_temperature;BME280_humidity;BME280_pressure;Samples;Min_cycle;Max_cycle;Signal;HPM_P1;HPM_P2
2022/04/12 00:00:45;;;;;;;11.63;6.15;;;9.00;78.30;;;;;;5032245;28;20029;-77
2022/04/12 00:03:11;;;;;;;9.27;5.80;;;8.90;78.10;;;;;;5031918;28;20026;-76
2022/04/12 00:05:39;;;;;;;10.85;6.30;;;9.00;77.90;;;;;;5032056;28;20029;-75
2022/04/12 00:08:05;;;;;;;11.77;6.20;;;8.90;78.00;;;;;;5032087;28;20029;-76
2022/04/12 00:10:32;;;;;;;11.43;6.07;;;8.90;78.40;;;;;;5031341;28;20275;-76
2022/04/12 00:12:59;;;;;;;12.93;6.15;;;8.80;78.90;;;;;;5031934;28;20025;-77
2022/04/12 00:15:25;;;;;;;17.60;5.82;;;8.90;79.10;;;;;;5031799;28;20037;-77
2022/04/12 00:20:34;;;;;;;11.32;5.70;;;8.70;79.00;;;;;;5031698;28;20453;-78
2022/04/12 00:23:01;;;;;;;13.55;5.40;;;8.70;80.00;;;;;;5030662;28;20018;-76
2022/04/12 00:25:28;;;;;;;14.43;5.28;;;8.60;80.50;;;;;;5032181;28;20029;-76
2022/04/12 00:27:55;;;;;;;8.23;5.22;;;8.40;81.10;;;;;;5031548;28;20026;-76
2022/04/12 00:30:22;;;;;;;10.32;5.38;;;8.40;81.60;;;;;;5047146;28;20042;-77
2022/04/12 00:32:50;;;;;;;15.18;5.88;;;8.40;81.80;;;;;;5031580;28;20091;-76
2022/04/12 00:35:16;;;;;;;13.48;5.20;;;8.40;82.20;;;;;;5031204;28;20037;-76
2022/04/12 00:37:42;;;;;;;14.50;5.43;;;8.40;82.70;;;;;;5031523;28;20029;-77
2022/04/12 00:40:08;;;;;;;10.10;5.88;;;8.40;82.30;;;;;;5031814;28;20359;-76
2022/04/12 00:42:33;;;;;;;14.43;5.45;;;8.40;82.50;;;;;;5031506;28;20029;-76
2022/04/12 00:44:59;;;;;;;10.63;5.22;;;8.40;83.10;;;;;;5031447;28;20037;-76
2022/04/12 00:47:25;;;;;;;15.15;6.03;;;8.30;83.10;;;;;;5031338;28;20083;-77
2022/04/12 00:49:50;;;;;;;12.38;5.45;;;8.30;83.20;;;;;;5046660;28;20037;-76
2022/04/12 00:52:17;;;;;;;14.07;5.13;;;8.20;83.50;;;;;;5047277;28;20033;-77
2022/04/12 00:54:43;;;;;;;13.05;6.15;;;8.20;83.80;;;;;;5030487;28;20463;-76
2022/04/12 00:57:09;;;;;;;16.33;6.72;;;8.10;83.50;;;;;;5031183;28;20026;-75
2022/04/12 00:59:35;;;;;;;12.02;6.57;;;8.20;82.80;;;;;;5031213;28;20033;-76
2022/04/12 01:02:04;;;;;;;16.08;6.53;;;8.10;83.50;;;;;;5046629;28;20038;-75
2022/04/12 01:04:30;;;;;;;12.35;6.35;;;8.30;83.20;;;;;;5031523;28;20025;-77
2022/04/12 01:06:55;;;;;;;13.32;6.57;;;8.20;83.40;;;;;;5030117;28;20099;-77
2022/04/12 01:09:22;;;;;;;14.23;6.70;;;8.10;83.90;;;;;;5031128;28;20021;-76
2022/04/12 01:11:55;;;;;;;14.10;6.78;;;8.20;84.20;;;;;;5031114;28;20029;-78
2022/04/12 01:14:30;;;;;;;11.98;6.57;;;8.20;83.50;;;;;;5022110;28;20120;-76
2022/04/12 01:16:56;;;;;;;14.05;6.30;;;8.20;84.00;;;;;;5031375;28;20036;-76
2022/04/12 01:19:21;;;;;;;13.60;6.97;;;8.10;83.60;;;;;;5031443;28;20101;-75
2022/04/12 01:21:51;;;;;;;17.35;7.55;;;8.10;83.00;;;;;;5030832;28;20025;-75
2022/04/12 01:24:17;;;;;;;14.27;6.82;;;8.20;82.00;;;;;;5030034;28;20502;-76
2022/04/12 01:26:43;;;;;;;15.55;6.15;;;8.20;82.70;;;;;;5029955;28;20041;-76
2022/04/12 01:29:09;;;;;;;11.98;6.53;;;8.10;83.60;;;;;;5030897;28;20060;-77
2022/04/12 01:31:35;;;;;;;15.48;6.50;;;8.10;84.60;;;;;;5031247;28;20022;-75
2022/04/12 01:34:00;;;;;;;14.13;6.63;;;8.10;84.00;;;;;;5030831;28;20619;-76
2022/04/12 01:36:26;;;;;;;11.07;6.90;;;8.10;84.50;;;;;;5043291;28;20053;-76
2022/04/12 01:38:51;;;;;;;12.32;6.00;;;8.00;85.50;;;;;;5050846;28;20032;-75
2022/04/12 01:41:17;;;;;;;12.00;6.15;;;7.90;86.20;;;;;;5050655;28;20405;-74
2022/04/12 01:43:42;;;;;;;11.85;6.85;;;7.90;86.30;;;;;;5050549;28;20446;-76
2022/04/12 01:46:09;;;;;;;15.25;6.45;;;7.90;85.70;;;;;;5051284;28;20037;-75
2022/04/12 01:48:35;;;;;;;15.38;7.10;;;7.90;85.60;;;;;;5050508;28;20476;-76
2022/04/12 01:51:01;;;;;;;13.75;7.40;;;7.90;85.30;;;;;;5050321;28;20112;-74
2022/04/12 01:53:26;;;;;;;14.07;6.95;;;7.90;85.10;;;;;;5050623;28;20025;-76
2022/04/12 01:55:52;;;;;;;11.55;6.68;;;7.90;84.90;;;;;;5050799;28;20032;-75
2022/04/12 01:58:17;;;;;;;10.25;6.10;;;7.90;85.70;;;;;;5051223;28;20514;-74
2022/04/12 02:00:43;;;;;;;23.02;7.35;;;7.90;86.60;;;;;;5050497;28;20029;-76
2022/04/12 02:03:09;;;;;;;13.77;7.70;;;7.90;85.30;;;;;;5050542;28;20036;-74
2022/04/12 02:05:35;;;;;;;21.50;9.10;;;7.90;84.20;;;;;;5050398;28;20052;-75
2022/04/12 02:08:01;;;;;;;14.15;8.73;;;7.90;83.00;;;;;;5054093;28;20427;-76
2022/04/12 02:10:26;;;;;;;17.02;8.25;;;7.90;83.00;;;;;;5054676;28;20261;-75
2022/04/12 02:12:52;;;;;;;15.23;7.75;;;8.00;83.10;;;;;;5054162;28;20483;-75
2022/04/12 02:15:18;;;;;;;15.02;7.78;;;7.90;84.20;;;;;;5053946;28;20533;-77
2022/04/12 02:17:43;;;;;;;16.58;8.02;;;7.90;84.90;;;;;;5054040;28;20036;-75
2022/04/12 02:20:09;;;;;;;17.65;7.47;;;7.90;84.50;;;;;;5053842;28;20461;-75
2022/04/12 02:22:36;;;;;;;14.35;8.15;;;7.90;84.20;;;;;;5054319;28;20036;-74
2022/04/12 02:25:03;;;;;;;16.75;8.07;;;7.90;85.00;;;;;;5053955;28;20032;-75
2022/04/12 02:27:28;;;;;;;14.70;8.77;;;7.90;84.90;;;;;;5052653;28;20087;-77
2022/04/12 02:29:54;;;;;;;16.63;8.70;;;8.00;84.80;;;;;;5052646;28;20645;-75
2022/04/12 02:32:20;;;;;;;17.67;7.75;;;7.90;83.80;;;;;;5052650;28;20059;-75
2022/04/12 02:34:45;;;;;;;14.25;8.35;;;7.90;84.70;;;;;;5053507;28;20037;-75
2022/04/12 02:37:11;;;;;;;15.45;7.95;;;7.80;84.60;;;;;;5053903;28;20045;-76
2022/04/12 02:39:36;;;;;;;17.38;9.10;;;7.80;84.30;;;;;;5052497;28;20466;-74
2022/04/12 02:42:02;;;;;;;17.20;8.73;;;7.80;84.80;;;;;;5053592;28;20021;-76
2022/04/12 02:44:28;;;;;;;17.17;8.55;;;7.80;84.20;;;;;;5053450;28;20029;-77
2022/04/12 02:46:53;;;;;;;15.90;9.15;;;7.80;84.10;;;;;;5053420;28;20435;-76
2022/04/12 02:49:19;;;;;;;14.13;8.02;;;7.70;84.50;;;;;;5054155;28;20056;-77
2022/04/12 02:51:48;;;;;;;17.63;8.75;;;7.70;85.00;;;;;;5052394;28;20037;-75
2022/04/12 02:54:14;;;;;;;16.20;8.65;;;7.70;84.90;;;;;;5052311;28;20485;-77
2022/04/12 02:56:39;;;;;;;16.95;8.52;;;7.70;85.30;;;;;;5053314;28;20608;-76
2022/04/12 02:59:05;;;;;;;15.23;7.78;;;7.70;85.50;;;;;;5053363;28;20049;-76
2022/04/12 03:01:31;;;;;;;13.95;7.72;;;7.70;86.10;;;;;;5052469;28;20116;-76
2022/04/12 03:03:56;;;;;;;14.75;7.45;;;7.70;86.30;;;;;;5053200;28;20049;-76
2022/04/12 03:06:22;;;;;;;13.75;7.80;;;7.70;86.60;;;;;;5052106;28;20478;-77
2022/04/12 03:08:47;;;;;;;14.52;7.88;;;7.60;87.20;;;;;;5053244;28;20534;-77
2022/04/12 03:11:13;;;;;;;13.13;7.80;;;7.60;87.00;;;;;;5053059;28;20454;-77
2022/04/12 03:13:39;;;;;;;16.13;8.30;;;7.60;86.60;;;;;;5052338;28;20421;-77
2022/04/12 03:16:10;;;;;;;14.75;8.23;;;7.60;87.30;;;;;;5052919;28;20076;-77
2022/04/12 03:18:36;;;;;;;16.80;7.90;;;7.60;87.90;;;;;;5051851;28;20032;-76
2022/04/12 03:21:01;;;;;;;15.73;8.40;;;7.60;88.30;;;;;;5052793;28;20025;-76
2022/04/12 03:23:27;;;;;;;15.07;8.15;;;7.60;88.30;;;;;;5051810;28;20029;-77
2022/04/12 03:25:52;;;;;;;16.20;8.27;;;7.60;87.90;;;;;;5051722;28;20033;-75
2022/04/12 03:28:18;;;;;;;18.05;8.70;;;7.70;87.40;;;;;;5053075;28;20059;-76
2022/04/12 03:30:44;;;;;;;19.77;8.70;;;7.70;86.30;;;;;;5052649;28;20040;-76
2022/04/12 03:33:10;;;;;;;17.17;8.30;;;7.60;86.50;;;;;;5052605;28;20037;-76
2022/04/12 03:35:35;;;;;;;16.33;9.43;;;7.70;86.60;;;;;;5052368;28;20041;-76
2022/04/12 03:38:01;;;;;;;15.65;8.85;;;7.70;86.00;;;;;;5052649;28;20048;-76
2022/04/12 03:40:31;;;;;;;18.98;8.98;;;7.80;86.20;;;;;;5052037;28;20071;-77
2022/04/12 03:43:04;;;;;;;17.45;8.43;;;7.80;86.00;;;;;;5052627;28;20025;-75
2022/04/12 03:45:31;;;;;;;18.88;8.77;;;7.80;86.50;;;;;;5052290;28;20037;-77
2022/04/12 03:47:56;;;;;;;18.05;9.13;;;7.80;86.00;;;;;;5051411;28;20067;-76
2022/04/12 03:50:23;;;;;;;20.30;8.90;;;7.90;85.20;;;;;;5052174;28;20037;-76
2022/04/12 03:52:52;;;;;;;18.33;9.25;;;7.80;84.70;;;;;;5052225;28;20067;-75
2022/04/12 03:55:30;;;;;;;18.40;9.25;;;7.90;84.70;;;;;;5052710;28;20028;-75
2022/04/12 03:58:00;;;;;;;18.73;8.25;;;7.90;85.50;;;;;;5051240;28;20032;-76
2022/04/12 04:00:27;;;;;;;16.75;8.77;;;7.90;86.00;;;;;;5052039;28;20335;-76
2022/04/12 04:02:53;;;;;;;22.63;8.50;;;7.90;85.50;;;;;;5052088;28;20029;-76
2022/04/12 04:05:18;;;;;;;16.15;9.07;;;7.90;84.10;;;;;;5051743;28;20391;-76
2022/04/12 04:07:44;;;;;;;18.33;9.15;;;7.90;84.10;;;;;;5051883;28;20029;-77
2022/04/12 04:10:09;;;;;;;20.00;8.75;;;7.90;84.10;;;;;;5051355;28;20082;-76
2022/04/12 04:12:35;;;;;;;18.30;10.20;;;7.90;84.60;;;;;;5051834;28;20040;-75
2022/04/12 04:15:01;;;;;;;21.42;8.70;;;7.90;84.50;;;;;;5050575;28;20378;-75
2022/04/12 04:17:26;;;;;;;17.77;7.90;;;7.90;84.20;;;;;;5051870;28;20040;-75
2022/04/12 04:19:52;;;;;;;18.17;8.50;;;8.00;84.40;;;;;;5050663;28;20469;-75
2022/04/12 04:22:17;;;;;;;16.70;8.45;;;7.90;83.50;;;;;;5051005;28;20032;-76
2022/04/12 04:24:43;;;;;;;14.70;8.00;;;7.90;83.30;;;;;;5051762;28;20040;-75
2022/04/12 04:27:09;;;;;;;17.33;8.18;;;7.90;83.60;;;;;;5050501;28;20033;-76
2022/04/12 04:29:35;;;;;;;14.88;7.75;;;7.90;83.40;;;;;;5050525;28;20344;-75
2022/04/12 04:32:02;;;;;;;17.02;8.35;;;7.80;83.00;;;;;;5050428;28;20070;-76
2022/04/12 04:34:27;;;;;;;15.73;7.88;;;7.80;82.90;;;;;;5050897;28;20397;-75
2022/04/12 04:36:53;;;;;;;20.45;7.80;;;7.80;83.10;;;;;;5051071;28;20045;-76
2022/04/12 04:39:18;;;;;;;16.25;8.05;;;7.80;83.20;;;;;;5050226;28;20478;-75
2022/04/12 04:41:44;;;;;;;15.07;7.65;;;7.70;83.00;;;;;;5050177;28;20451;-75
2022/04/12 04:44:09;;;;;;;13.95;7.32;;;7.70;82.90;;;;;;5051229;28;20115;-76
2022/04/12 04:46:35;;;;;;;17.30;8.68;;;7.70;83.10;;;;;;5051756;28;20033;-76
2022/04/12 04:49:01;;;;;;;14.80;7.78;;;7.70;83.10;;;;;;5051424;28;20442;-75
2022/04/12 04:51:26;;;;;;;16.27;7.90;;;7.70;83.50;;;;;;5050040;28;20029;-75
2022/04/12 04:53:58;;;;;;;18.08;8.13;;;7.70;83.70;;;;;;5050073;28;20120;-74
2022/04/12 04:56:27;;;;;;;16.17;8.15;;;7.60;83.50;;;;;;5051229;28;20038;-74
2022/04/12 04:58:53;;;;;;;13.93;7.53;;;7.60;83.40;;;;;;5050963;28;20155;-77
2022/04/12 05:01:20;;;;;;;14.70;8.45;;;7.60;83.50;;;;;;5050437;28;20465;-75
2022/04/12 05:03:46;;;;;;;18.58;8.07;;;7.70;83.70;;;;;;5050964;28;20131;-75
2022/04/12 05:06:14;;;;;;;13.98;7.78;;;7.70;83.70;;;;;;5051053;28;20037;-75
2022/04/12 05:08:40;;;;;;;12.77;7.45;;;7.80;83.90;;;;;;5050954;28;20359;-75
2022/04/12 05:11:12;;;;;;;17.30;8.32;;;7.90;83.80;;;;;;5051261;28;20108;-75
2022/04/12 05:13:38;;;;;;;19.67;8.73;;;7.90;83.70;;;;;;5051504;28;20039;-75
2022/04/12 05:16:24;;;;;;;16.88;8.05;;;7.90;83.50;;;;;;5051153;28;20033;-76
2022/04/12 05:18:51;;;;;;;16.00;7.53;;;8.10;83.00;;;;;;5050801;28;20091;-75
2022/04/12 05:21:18;;;;;;;19.95;7.65;;;8.20;82.50;;;;;;5050698;28;20048;-77
2022/04/12 05:23:44;;;;;;;19.77;7.85;;;8.20;82.10;;;;;;5050927;28;20025;-75
2022/04/12 05:26:15;;;;;;;14.38;7.32;;;8.30;82.50;;;;;;5049573;28;20021;-75
2022/04/12 05:28:41;;;;;;;15.45;6.72;;;8.30;82.40;;;;;;5051063;28;20029;-75
2022/04/12 05:31:13;;;;;;;17.27;7.72;;;8.30;82.00;;;;;;5050680;28;20033;-75
2022/04/12 05:33:38;;;;;;;16.20;7.40;;;8.40;81.90;;;;;;5050465;28;20028;-78
2022/04/12 05:36:16;;;;;;;12.63;6.95;;;8.40;81.70;;;;;;5050149;28;20049;-75
2022/04/12 05:38:42;;;;;;;21.65;7.18;;;8.40;81.80;;;;;;5049588;28;20056;-76
2022/04/12 05:41:13;;;;;;;14.68;7.40;;;8.50;82.20;;;;;;5051355;28;20056;-75
2022/04/12 05:43:39;;;;;;;13.93;6.65;;;8.50;81.50;;;;;;5053863;28;20053;-75
2022/04/12 05:46:04;;;;;;;12.98;6.82;;;8.60;81.20;;;;;;5054468;28;20462;-74
2022/04/12 05:48:30;;;;;;;14.85;6.65;;;8.60;81.10;;;;;;5054491;28;20064;-75
2022/04/12 05:50:55;;;;;;;15.20;7.90;;;8.70;81.20;;;;;;5054268;28;20041;-74
2022/04/12 05:53:22;;;;;;;14.48;6.82;;;8.80;81.20;;;;;;5054374;28;20044;-74
2022/04/12 05:55:48;;;;;;;12.90;6.82;;;8.80;80.70;;;;;;5054279;28;20021;-74
2022/04/12 05:58:13;;;;;;;12.27;6.28;;;8.90;80.50;;;;;;5053610;28;20028;-74
2022/04/12 06:00:39;;;;;;;13.85;6.70;;;9.00;80.50;;;;;;5052952;28;20056;-75
2022/04/12 06:03:05;;;;;;;13.85;6.45;;;9.00;80.50;;;;;;5053020;28;20037;-74
2022/04/12 06:05:32;;;;;;;16.35;6.65;;;9.20;80.20;;;;;;5054364;28;20033;-73
2022/04/12 06:07:59;;;;;;;17.25;6.03;;;9.20;79.90;;;;;;5054519;28;20083;-71
2022/04/12 06:10:25;;;;;;;16.35;7.70;;;9.20;80.00;;;;;;5054665;28;20447;-75
2022/04/12 06:12:52;;;;;;;10.45;6.20;;;9.20;80.20;;;;;;5054089;28;20196;-72
2022/04/12 06:15:19;;;;;;;21.00;6.40;;;9.30;81.40;;;;;;5054016;28;20115;-75
2022/04/12 06:17:45;;;;;;;14.07;6.13;;;9.30;80.50;;;;;;5053889;28;20022;-75
2022/04/12 06:20:16;;;;;;;27.60;7.22;;;9.40;80.60;;;;;;5053944;28;20059;-75
2022/04/12 06:22:42;;;;;;;15.32;6.25;;;9.40;80.00;;;;;;5053841;28;20025;-74
2022/04/12 06:25:09;;;;;;;11.57;5.88;;;9.50;79.50;;;;;;5054319;28;20032;-74
2022/04/12 06:27:37;;;;;;;10.23;6.07;;;9.40;78.90;;;;;;5054340;28;20044;-72
2022/04/12 06:30:08;;;;;;;17.63;6.07;;;9.50;78.90;;;;;;5054430;28;20033;-75
2022/04/12 06:32:34;;;;;;;10.48;5.50;;;9.40;78.70;;;;;;5053881;28;20029;-73
2022/04/12 06:35:00;;;;;;;17.33;6.53;;;9.60;79.00;;;;;;5052348;28;20025;-74
2022/04/12 06:37:27;;;;;;;16.45;6.00;;;9.70;78.50;;;;;;5053626;28;20117;-74
2022/04/12 06:39:55;;;;;;;12.85;5.60;;;9.70;78.10;;;;;;5053680;28;20029;-74
2022/04/12 06:42:21;;;;;;;9.43;5.45;;;9.80;77.70;;;;;;5049262;28;20127;-73
2022/04/12 06:44:46;;;;;;;15.15;5.18;;;9.80;77.60;;;;;;5032389;28;20542;-73
2022/04/12 06:47:15;;;;;;;11.73;7.15;;;9.80;77.50;;;;;;5033930;28;20124;-70
2022/04/12 06:49:44;;;;;;;12.43;5.70;;;10.00;76.60;;;;;;5033714;28;20417;-69
2022/04/12 06:52:09;;;;;;;17.15;6.97;;;10.00;76.20;;;;;;5032211;28;20033;-71
2022/04/12 06:54:35;;;;;;;9.82;5.30;;;10.20;76.20;;;;;;5033409;28;20040;-70
2022/04/12 06:57:00;;;;;;;8.85;4.80;;;10.20;75.80;;;;;;5033401;28;20060;-69
2022/04/12 06:59:26;;;;;;;14.68;6.72;;;10.20;75.60;;;;;;5033273;28;20344;-69
2022/04/12 07:01:51;;;;;;;11.35;5.35;;;10.30;75.80;;;;;;5031997;28;20113;-70
2022/04/12 07:04:17;;;;;;;12.68;5.80;;;10.40;76.30;;;;;;5033718;28;20033;-70
2022/04/12 07:06:45;;;;;;;17.95;5.53;;;10.50;75.60;;;;;;5033148;28;20494;-71
2022/04/12 07:09:17;;;;;;;;;;;10.60;75.50;;;;;;5033725;28;20506;-72
2022/04/12 07:11:44;;;;;;;12.70;5.60;;;10.70;75.80;;;;;;5033268;28;19909;-73
2022/04/12 07:14:10;;;;;;;9.10;5.15;;;10.80;75.50;;;;;;5033071;28;20083;-71
2022/04/12 07:16:35;;;;;;;14.90;5.45;;;10.90;75.40;;;;;;5032242;28;20021;-72
2022/04/12 07:19:01;;;;;;;8.63;4.78;;;11.10;75.10;;;;;;5032829;28;20029;-71
2022/04/12 07:21:29;;;;;;;9.40;5.47;;;11.20;74.80;;;;;;5032859;28;20070;-72
2022/04/12 07:23:55;;;;;;;9.80;4.82;;;11.40;74.80;;;;;;5031826;28;20030;-70
2022/04/12 07:26:21;;;;;;;12.95;5.40;;;11.50;74.40;;;;;;5031527;28;20033;-70
2022/04/12 07:28:46;;;;;;;9.45;5.03;;;11.50;74.50;;;;;;5032693;28;20502;-72
2022/04/12 07:31:15;;;;;;;9.65;4.68;;;11.50;74.50;;;;;;5032982;28;20057;-71
2022/04/12 07:33:40;;;;;;;9.32;4.78;;;11.60;74.50;;;;;;5032637;28;20048;-71
2022/04/12 07:36:15;;;;;;;13.90;4.72;;;11.70;74.40;;;;;;5032291;28;20103;-71
2022/04/12 07:38:41;;;;;;;10.98;5.22;;;11.70;74.00;;;;;;5032586;28;20414;-71
2022/04/12 07:41:12;;;;;;;11.93;5.18;;;11.70;73.70;;;;;;5032122;28;20501;-69
2022/04/12 07:43:39;;;;;;;10.68;4.97;;;11.70;73.80;;;;;;5032929;28;20034;-72
2022/04/12 07:46:14;;;;;;;11.13;5.15;;;11.80;73.60;;;;;;5031240;28;20021;-72
2022/04/12 07:48:40;;;;;;;10.52;5.45;;;11.90;73.70;;;;;;5032313;28;20058;-71
2022/04/12 07:51:12;;;;;;;12.27;5.70;;;11.80;73.30;;;;;;5032275;28;20033;-72
2022/04/12 07:53:38;;;;;;;8.82;5.15;;;12.00;73.30;;;;;;5031259;28;20022;-72
2022/04/12 07:56:12;;;;;;;8.85;5.30;;;12.10;73.40;;;;;;5032133;28;20475;-74
2022/04/12 07:58:38;;;;;;;9.30;5.10;;;12.20;72.90;;;;;;5032433;28;20083;-73
2022/04/12 08:01:13;;;;;;;9.40;5.03;;;12.20;72.30;;;;;;5032102;28;20030;-73
2022/04/12 08:03:40;;;;;;;9.07;5.03;;;12.40;72.30;;;;;;5031848;28;20522;-74
2022/04/12 08:06:14;;;;;;;7.53;4.63;;;12.40;72.50;;;;;;5032419;28;20048;-74
2022/04/12 08:08:40;;;;;;;8.57;4.80;;;12.70;72.10;;;;;;5031072;28;20033;-70
2022/04/12 08:11:17;;;;;;;10.25;5.10;;;13.00;71.80;;;;;;5031802;28;20030;-73
2022/04/12 08:13:44;;;;;;;11.57;5.28;;;13.70;70.90;;;;;;5032005;28;20025;-71
2022/04/12 08:16:15;;;;;;;7.13;4.63;;;14.50;69.20;;;;;;5032282;28;20141;-72
2022/04/12 08:18:45;;;;;;;11.02;4.72;;;15.10;67.70;;;;;;5032070;28;20041;-72
2022/04/12 08:21:15;;;;;;;11.45;5.63;;;15.60;66.30;;;;;;5030805;28;20504;-71
2022/04/12 08:23:41;;;;;;;10.25;4.80;;;16.20;64.80;;;;;;5031918;28;20082;-71
2022/04/12 08:26:13;;;;;;;10.48;5.07;;;16.60;64.90;;;;;;5031790;28;20029;-71
2022/04/12 08:28:39;;;;;;;9.63;5.07;;;16.80;62.30;;;;;;5032084;28;20064;-72
2022/04/12 08:31:14;;;;;;;11.23;4.45;;;16.80;61.60;;;;;;5030597;28;20475;-73
2022/04/12 08:33:40;;;;;;;11.82;4.70;;;17.70;60.60;;;;;;5031503;28;20112;-73
2022/04/12 08:36:11;;;;;;;9.75;4.85;;;18.30;59.30;;;;;;5031230;28;20136;-72
2022/04/12 08:38:37;;;;;;;9.65;4.93;;;19.10;58.00;;;;;;5031567;28;20117;-71
2022/04/12 08:41:03;;;;;;;8.90;4.68;;;19.70;57.00;;;;;;5031343;28;20562;-72
2022/04/12 08:43:29;;;;;;;14.10;4.47;;;20.40;56.10;;;;;;5031755;28;20095;-72
2022/04/12 08:45:55;;;;;;;8.25;4.05;;;20.70;54.00;;;;;;5030100;28;20040;-72
2022/04/12 08:48:22;;;;;;;11.57;5.13;;;21.00;53.10;;;;;;5031222;28;20033;-73
2022/04/12 08:50:49;;;;;;;10.35;6.28;;;21.40;52.40;;;;;;5031452;28;20117;-72
2022/04/12 08:53:18;;;;;;;8.82;4.32;;;21.40;50.80;;;;;;5030010;28;20032;-73
2022/04/12 08:55:43;;;;;;;7.55;4.35;;;21.90;50.30;;;;;;5031003;28;20064;-71
2022/04/12 08:58:09;;;;;;;8.10;4.28;;;22.50;49.80;;;;;;5031751;28;20569;-72
2022/04/12 09:00:34;;;;;;;7.95;4.60;;;22.60;48.30;;;;;;5031119;28;20041;-73
2022/04/12 09:03:00;;;;;;;6.82;4.30;;;22.90;48.10;;;;;;5029800;28;20558;-73
2022/04/12 09:05:27;;;;;;;7.88;4.50;;;22.40;47.30;;;;;;5030926;28;20071;-72
2022/04/12 09:07:53;;;;;;;9.68;4.72;;;22.50;48.10;;;;;;5030995;28;20017;-71
2022/04/12 09:10:22;;;;;;;12.00;4.82;;;22.50;47.40;;;;;;5031340;28;20349;-72
2022/04/12 09:12:48;;;;;;;12.23;4.90;;;22.40;47.00;;;;;;5030790;28;20026;-73
2022/04/12 09:15:15;;;;;;;11.55;5.05;;;22.60;48.00;;;;;;5030258;28;20044;-72
2022/04/12 09:17:44;;;;;;;6.93;4.80;;;23.20;47.10;;;;;;5029360;28;20033;-72
2022/04/12 09:20:14;;;;;;;8.27;4.85;;;22.90;46.90;;;;;;5029900;28;20586;-69
2022/04/12 09:22:40;;;;;;;6.60;4.43;;;23.40;46.50;;;;;;5030883;28;20037;-71
2022/04/12 09:25:10;;;;;;;15.93;8.73;;;23.60;45.60;;;;;;5030700;28;20044;-71
2022/04/12 09:27:36;;;;;;;9.07;5.28;;;24.10;45.20;;;;;;5030874;28;20037;-71
2022/04/12 09:30:07;;;;;;;5.65;4.10;;;24.20;45.10;;;;;;5030621;28;20037;-73
2022/04/12 09:32:38;;;;;;;10.88;5.13;;;24.40;44.10;;;;;;5030582;28;20474;-72
2022/04/12 09:35:05;;;;;;;9.68;4.90;;;24.80;43.60;;;;;;5030419;28;20098;-73
2022/04/12 09:37:36;;;;;;;7.87;5.07;;;25.40;43.10;;;;;;5031072;28;20025;-74
2022/04/12 09:40:02;;;;;;;7.82;5.13;;;26.10;42.60;;;;;;5030497;28;20082;-73
2022/04/12 09:42:48;;;;;;;8.70;4.35;;;26.30;42.00;;;;;;5030545;28;20073;-72
2022/04/12 09:45:15;;;;;;;8.98;4.72;;;26.10;41.40;;;;;;5030744;28;20116;-72
2022/04/12 09:47:41;;;;;;;12.10;5.17;;;26.00;41.40;;;;;;5030857;28;20049;-73
2022/04/12 09:50:09;;;;;;;10.45;5.10;;;26.00;42.00;;;;;;5030926;28;20036;-74
2022/04/12 09:52:35;;;;;;;6.05;4.30;;;26.50;41.10;;;;;;5031468;28;20029;-75
2022/04/12 09:55:00;;;;;;;8.77;5.60;;;26.80;40.40;;;;;;5030617;28;20061;-72
2022/04/12 09:57:26;;;;;;;12.32;5.55;;;26.70;40.70;;;;;;5030598;28;20054;-72
2022/04/12 10:00:01;;;;;;;8.18;4.72;;;26.70;40.10;;;;;;5030416;28;20033;-74
2022/04/12 10:02:28;;;;;;;22.90;6.05;;;26.90;40.10;;;;;;5029239;28;20025;-72
2022/04/12 10:04:55;;;;;;;13.05;5.15;;;26.90;40.20;;;;;;5030378;28;20022;-72
2022/04/12 10:07:23;;;;;;;8.65;4.93;;;27.00;39.60;;;;;;5031267;28;20032;-72
2022/04/12 10:09:50;;;;;;;9.55;5.40;;;26.80;39.30;;;;;;5029233;28;20052;-74
2022/04/12 10:12:17;;;;;;;9.23;4.68;;;26.10;39.10;;;;;;5029544;28;20359;-73
2022/04/12 10:14:44;;;;;;;9.63;5.00;;;27.10;39.30;;;;;;5030300;28;20021;-73
2022/04/12 10:17:12;;;;;;;10.18;4.30;;;27.60;38.40;;;;;;5030359;28;20471;-75
2022/04/12 10:19:40;;;;;;;10.10;4.90;;;27.70;38.10;;;;;;5030777;28;20033;-73
2022/04/12 10:22:06;;;;;;;14.32;8.48;;;28.00;37.90;;;;;;5029257;28;20049;-74
2022/04/12 10:24:33;;;;;;;10.65;5.10;;;28.40;38.00;;;;;;5030204;28;20034;-72
2022/04/12 10:26:59;;;;;;;9.52;4.97;;;29.30;37.00;;;;;;5029691;28;20050;-72
2022/04/12 10:29:25;;;;;;;10.85;5.53;;;28.80;36.60;;;;;;5032434;28;20041;-75
2022/04/12 10:31:55;;;;;;;9.85;4.97;;;28.10;37.30;;;;;;5033872;28;20025;-72
2022/04/12 10:34:21;;;;;;;10.60;6.45;;;28.40;36.80;;;;;;5034526;28;20048;-74
2022/04/12 10:36:57;;;;;;;10.45;6.20;;;28.40;36.60;;;;;;5034090;28;20053;-73
2022/04/12 10:39:29;;;;;;;7.38;4.78;;;28.40;36.40;;;;;;5033806;28;20033;-73
2022/04/12 10:41:57;;;;;;;8.70;4.93;;;27.90;37.40;;;;;;5033243;28;20029;-72
2022/04/12 10:44:23;;;;;;;9.60;5.13;;;27.70;35.50;;;;;;5033323;28;20033;-72
2022/04/12 10:46:54;;;;;;;8.63;5.55;;;27.70;34.80;;;;;;5033357;28;20022;-74
2022/04/12 10:49:22;;;;;;;7.85;5.10;;;26.80;36.20;;;;;;5045456;28;20083;-76
2022/04/12 10:52:01;;;;;;;8.50;5.75;;;27.10;36.30;;;;;;5049249;28;20060;-76
2022/04/12 10:54:32;;;;;;;10.13;6.05;;;27.30;37.40;;;;;;5048778;28;20047;-75
2022/04/12 10:57:16;;;;;;;8.90;5.50;;;27.80;36.40;;;;;;5048575;28;20615;-74
2022/04/12 10:59:47;;;;;;;10.70;5.60;;;27.50;35.20;;;;;;5033037;28;20041;-76
2022/04/12 11:02:14;;;;;;;10.20;5.15;;;27.50;36.20;;;;;;5033267;28;20025;-72
2022/04/12 11:04:40;;;;;;;10.65;5.65;;;27.50;35.00;;;;;;5034032;28;20026;-73
2022/04/12 11:07:09;;;;;;;10.13;5.78;;;27.30;36.10;;;;;;5033066;28;20087;-73
2022/04/12 11:09:35;;;;;;;11.77;6.65;;;26.60;34.90;;;;;;5032820;28;20033;-71
2022/04/12 11:12:03;;;;;;;11.98;6.60;;;26.20;36.90;;;;;;5032963;28;20446;-70
2022/04/12 11:14:36;;;;;;;13.93;6.43;;;25.70;36.70;;;;;;5032609;28;20037;-70
2022/04/12 11:17:10;;;;;;;11.00;5.78;;;25.40;37.60;;;;;;5048044;28;20459;-71
2022/04/12 11:19:42;;;;;;;13.93;6.13;;;25.20;38.10;;;;;;5033439;28;20029;-72
2022/04/12 11:22:12;;;;;;;11.95;5.88;;;24.40;39.10;;;;;;5033066;28;20042;-72
2022/04/12 11:24:38;;;;;;;12.95;6.00;;;24.30;39.20;;;;;;5033140;28;20030;-73
2022/04/12 11:27:05;;;;;;;8.88;5.38;;;24.20;39.40;;;;;;5032337;28;20064;-71
2022/04/12 11:29:31;;;;;;;8.18;5.55;;;23.90;39.80;;;;;;5048118;28;20038;-72
2022/04/12 11:31:58;;;;;;;11.90;5.50;;;23.80;39.70;;;;;;5032814;28;20456;-72
2022/04/12 11:34:26;;;;;;;10.63;5.30;;;23.50;39.60;;;;;;5033070;28;20029;-74
2022/04/12 11:37:00;;;;;;;11.38;6.00;;;22.90;40.40;;;;;;5032111;28;20045;-75
2022/04/12 11:39:52;;;;;;;9.68;6.03;;;22.70;41.50;;;;;;5027563;28;20026;-71
2022/04/12 11:42:17;;;;;;;14.00;6.63;;;22.70;41.50;;;;;;5031090;28;20072;-71
2022/04/12 11:44:54;;;;;;;15.85;7.18;;;22.50;41.20;;;;;;5032471;28;20371;-75
2022/04/12 11:47:25;;;;;;;11.10;6.68;;;22.30;41.90;;;;;;5032560;28;20025;-74
2022/04/12 11:49:51;;;;;;;11.00;6.13;;;22.40;42.40;;;;;;5032373;28;20025;-72
2022/04/12 11:52:16;;;;;;;10.80;5.88;;;22.00;42.30;;;;;;5048229;28;20087;-73
2022/04/12 11:54:47;;;;;;;12.18;6.30;;;21.70;42.90;;;;;;5032515;28;20044;-73
2022/04/12 11:57:23;;;;;;;13.55;6.63;;;21.60;43.30;;;;;;5032836;28;20025;-74
2022/04/12 11:59:58;;;;;;;12.93;6.78;;;21.50;43.50;;;;;;5047945;28;20542;-71
2022/04/12 12:02:25;;;;;;;11.38;6.60;;;21.50;43.50;;;;;;5032128;28;20021;-72
2022/04/12 12:05:04;;;;;;;8.48;6.40;;;21.60;43.60;;;;;;5032036;28;20041;-72
2022/04/12 12:07:30;;;;;;;12.57;6.35;;;21.70;44.00;;;;;;5032439;28;20018;-72
2022/04/12 12:10:00;;;;;;;9.38;6.00;;;21.50;43.70;;;;;;5031905;28;20375;-75
2022/04/12 12:12:45;;;;;;;8.98;6.05;;;21.50;43.00;;;;;;5032169;28;20108;-74
2022/04/12 12:15:29;;;;;;;13.02;6.32;;;21.40;43.00;;;;;;5032272;28;20053;-72
2022/04/12 12:17:59;;;;;;;13.60;7.25;;;21.20;43.10;;;;;;5031880;28;20024;-73
2022/04/12 12:20:27;;;;;;;11.48;7.40;;;21.20;43.50;;;;;;5031797;28;20366;-75
2022/04/12 12:22:56;;;;;;;15.60;7.80;;;21.10;44.30;;;;;;5032008;28;20025;-72
2022/04/12 12:25:41;;;;;;;12.50;7.07;;;21.00;43.90;;;;;;5032065;28;20060;-73
2022/04/12 12:28:12;;;;;;;12.05;7.10;;;21.00;44.40;;;;;;5031977;28;20064;-72
2022/04/12 12:30:38;;;;;;;16.70;8.57;;;21.10;44.00;;;;;;5031727;28;20040;-72
2022/04/12 12:33:04;;;;;;;17.90;8.13;;;21.10;44.60;;;;;;5031135;28;20033;-71
2022/04/12 12:35:30;;;;;;;12.20;7.80;;;21.10;44.70;;;;;;5031417;28;20303;-72
2022/04/12 12:38:15;;;;;;;15.48;8.93;;;21.00;45.20;;;;;;5030436;28;20025;-73
2022/04/12 12:40:43;;;;;;;11.30;8.43;;;21.10;45.80;;;;;;5047271;28;20142;-72
2022/04/12 12:43:11;;;;;;;12.38;8.07;;;21.10;45.20;;;;;;5031441;28;20052;-74
2022/04/12 12:45:42;;;;;;;;;;;20.90;44.80;;;;;;5031716;28;20557;-73
2022/04/12 12:48:15;;;;;;;16.70;8.23;;;21.00;45.40;;;;;;5031196;28;20136;-72
2022/04/12 12:50:42;;;;;;;12.63;7.20;;;21.10;45.10;;;;;;5031013;28;20037;-71